Mullan Pass, ID

2:21 PM PDT on October 20, 2014 (GMT -0700)
Sandpoint | Change Station
CLOSE
Current Station
Airport
Location: Sandpoint,
Elevation: 2126 ft
Nearby Weather Stations

Elev 2126 ft 48.30 °N, 116.56 °W | Updated 6 minutes ago

Clear
Clear
61 °F
Feels Like 61 °F
N
4
Wind Variable Wind from East

Today
High -- | Low -- °F
--% Chance of Precip.
Yesterday
High -- | Low -- °F
Precip. -- in
7:08 AM 5:45 PM
Waning Crescent, 9% visible
Pressure 29.76 in
Visibility 10.0 miles
Clouds Clear
Dew Point 46 °F
Humidity 59%
Rainfall 0.00 in
Snow Depth 0 in , 1 in , 0 in
UV 2 out of 12
Pollen 2.90 out of 12
Air Quality Not available.
Flu Activity Sporadic
METAR KSZT 202115Z AUTO 10003KT 10SM CLR 16/08 A2976 RMK AO2

More Conditions Fewer Conditions

Pressure 29.76 in
Visibility 10.0 miles
Clouds Clear
Dew Point 46 °F
Humidity 59%
Rainfall 0.00 in
Snow Depth 0 in , 1 in , 0 in
UV 2 out of 12
Pollen 2.90 out of 12
Air Quality Not available.
Flu Activity Sporadic
METAR KSZT 202115Z AUTO 10003KT 10SM CLR 16/08 A2976 RMK AO2

More Conditions Fewer Conditions

10-Day Weather Forecast

Almanac

Astronomy

Oct. 20, 2014 Rise Set
Actual Time 7:08 AM PDT 5:45 PM PDT
Civil Twilight 6:37 AM PDT 6:16 PM PDT
Nautical Twilight 6:01 AM PDT 6:52 PM PDT
Astronomical Twilight 5:26 AM PDT 7:27 PM PDT
Moon 3:48 AM PDT 4:20 PM PDT
Length of Visible Light 11h 39m
Length of Day
10h 36m
Waning Crescent, 9% of the Moon is Illuminated
Today
Waning Crescent
Oct 23
New
Oct 30
First Quarter
Nov 6
Full
Nov 14
Last Quarter

Today's Extremes

State Highs State Lows

Community

WunderPhotos

Upload Photos

1,763,522 photos uploaded!

WunderBlogs® & News

Nearby

Snow Depth

Station Depth Elevation
Lookout 0 in 5140 ft
Humboldt Gulch 1 in 4250 ft
Sunset 0 in 5540 ft
Lost Lake 0 in 6110 ft
Mica Creek 1 in 4750 ft

Earthquake Activity

City Distance Mag. Time & Date
No recent earthquake activity has been reported nearby.
Minimum magnitude displayed is 2.5.

Coastal Water Temperatures

Place Temperature
No Stations Reporting

Nearby Weather Stations